Aérodrome :
LOGIN :

S'inscrire | Disclaimer

   EN    FR    IT 

 










Légende :    VFR   VFR Marginal   IFR   IFR Intensif   IFR Très Intensif
Visi : 
Plafond : 
>= 8 km
>= 3000ft
5 à 8 km
1000 à 3000 ft
1500m à 5 km
500 à 1000 ft
800 à 1500m
200 à 500 ft
< 800m
< 200 ft
Symboles :   Orages  Brouillard  Fortes neiges  Fortes précipitations  Vent > 20 kt
SIGMETs :   Divers  Orages  Givrage  Turbulence  Onde Orograph.  Cendres Volcan.







- Altitude de l'aérodrome : 302 ft
- Code IATA : CGN


EDDK - Cologne Bonn

DERNIER METAR :
  • 161520Z 31006KT 280V340 9999 -SHRA FEW015 SCT031CB BKN047 04/02 Q0995 TEMPO 30020G30KT SHRA

METARs EXPIRÉS :
  • 161450Z 28006KT 9999 VCSH SCT015TCU SCT060 04/02 Q0995 TEMPO 30020G30KT SHRA
  • 161420Z 26010KT 230V290 8000 -SHRA VCTS FEW011 FEW017CB BKN040 03/02 Q0995 RESHRA TEMPO 30020G30KT SHRA
  • 161350Z 33010KT 300V360 9000 -SHRA FEW014 SCT028CB BKN033 04/02 Q0995 TEMPO 32020G35KT TSRAGS
  • 161320Z 31010KT 9999 -SHRA FEW014 SCT024CB BKN033 03/02 Q0994 TEMPO 32020G35KT TSRAGS
  • 161250Z 32016KT 9999 -SHRAGS FEW014 SCT018CB BKN033 04/02 Q0995 RESHRA TEMPO 32020G30KT SHRA

TAF TAF EDDK
Valide du 16 à 12h jusqu'au 17 à 18h UTC


161100Z 1612/1718 25015KT 9999 SCT025
TEMPO 1612/1622 26015G30KT SHRA BKN013 SCT020CB
PROB30
TEMPO 1612/1620 27020G35KT 3000 TSRAGS BKN008CB
TEMPO 1702/1715 26020G35KT SHSNRA BKN008CB
Pas de NOTAMs connus pour ce terrain.
1 SIGMET publié pour la FIR Langen (EDGG) :
 
Turbulence forte
EDGG SIGMET 7 VALID 161400/161600 EDZF
EDGG LANGEN FIR SEV TURB FCST S OF N4900 SFC/FL060 STNR WKN=



MET'MAP, la Météo Aéronautique d'un coup d'oeil ! - Copyright ORBIFLY Décembre 2007 - Disclaimer

ORBIFLY MET'MAP TEAM :

Programmation & Développement : Alexandra Zaïnal
Conception & Développement : Baudouin d'Aumeries
Co-Programmation & Développement : Marc-Olivier Méhu
Soutien technique & logistique : Manuel Goepfert

Contact : metmap@orbifly.com




SOURCES & CREDITS :

   NOAA